createdAt,value
2019-05-02T00:01:02.950Z,88.86
2019-05-02T00:03:36.078Z,89.00
2019-05-02T00:06:07.412Z,88.94
2019-05-02T00:08:35.088Z,90.00
2019-05-02T00:11:05.992Z,89.62
2019-05-02T00:13:35.066Z,88.18
2019-05-02T00:16:04.140Z,88.14
2019-05-02T00:18:37.337Z,88.37
2019-05-02T00:21:04.562Z,87.71
2019-05-02T00:23:33.628Z,88.69
2019-05-02T00:26:02.721Z,88.84
2019-05-02T00:28:31.864Z,90.08
2019-05-02T00:31:00.925Z,88.13
2019-05-02T00:33:34.511Z,89.77
2019-05-02T00:36:00.824Z,90.05
2019-05-02T00:38:33.261Z,89.68
2019-05-02T00:41:02.215Z,88.89
2019-05-02T00:43:34.629Z,86.73
2019-05-02T00:46:03.636Z,86.84
2019-05-02T00:48:37.716Z,87.94
2019-05-02T00:51:06.778Z,87.16
2019-05-02T00:53:35.924Z,87.06
2019-05-02T00:56:09.050Z,86.73
2019-05-02T00:58:36.985Z,87.74
2019-05-02T01:01:24.305Z,87.67
2019-05-02T01:03:56.845Z,87.14
2019-05-02T01:06:27.056Z,86.55
2019-05-02T01:08:56.094Z,87.95
2019-05-02T01:11:28.364Z,87.72
2019-05-02T01:13:57.747Z,87.83
2019-05-02T01:16:26.941Z,87.74
2019-05-02T01:18:56.019Z,88.88
2019-05-02T01:21:24.999Z,88.10
2019-05-02T01:23:54.162Z,87.64
2019-05-02T01:26:29.309Z,88.38
2019-05-02T01:29:17.831Z,87.47
2019-05-02T01:31:59.768Z,87.32
2019-05-02T01:34:43.871Z,87.91
2019-05-02T01:37:26.546Z,88.32
2019-05-02T01:39:55.662Z,88.62
2019-05-02T01:42:24.732Z,87.81
2019-05-02T01:44:53.928Z,87.06
2019-05-02T01:47:22.966Z,87.14
2019-05-02T01:49:57.069Z,89.85
2019-05-02T01:52:23.717Z,89.92
2019-05-02T01:54:53.661Z,89.10
2019-05-02T01:57:22.720Z,88.46
2019-05-02T01:59:51.743Z,89.54
2019-05-02T02:02:20.811Z,88.18
2019-05-02T02:04:52.206Z,89.86
2019-05-02T02:07:21.250Z,90.30
2019-05-02T02:09:50.404Z,91.00
2019-05-02T02:12:19.439Z,91.78
2019-05-02T02:14:53.429Z,90.21
2019-05-02T02:17:19.357Z,87.94
2019-05-02T02:19:54.377Z,87.70
2019-05-02T02:22:39.073Z,87.42
2019-05-02T02:25:24.891Z,87.15
2019-05-02T02:27:54.980Z,86.87
2019-05-02T02:30:26.704Z,88.11
2019-05-02T02:33:00.363Z,88.86
2019-05-02T02:35:26.633Z,88.59
2019-05-02T02:37:57.083Z,88.47
2019-05-02T02:40:32.840Z,89.62
2019-05-02T02:42:57.071Z,89.31
2019-05-02T02:45:31.686Z,88.38
2019-05-02T02:48:02.646Z,86.53
2019-05-02T02:50:36.720Z,88.07
2019-05-02T02:53:02.687Z,87.47
2019-05-02T02:55:31.813Z,88.23
2019-05-02T02:58:04.752Z,87.50
2019-05-02T03:00:31.684Z,87.35
2019-05-02T03:03:00.785Z,86.02
2019-05-02T03:05:29.864Z,89.12
2019-05-02T03:07:59.417Z,90.25
2019-05-02T03:10:29.723Z,89.31
2019-05-02T03:13:21.943Z,88.71
2019-05-02T03:15:51.310Z,87.73
2019-05-02T03:18:20.329Z,87.33
2019-05-02T03:20:49.453Z,87.29
2019-05-02T03:23:23.991Z,87.59
2019-05-02T03:25:51.355Z,87.87
2019-05-02T03:28:21.081Z,89.15
2019-05-02T03:30:50.234Z,88.61
2019-05-02T03:33:20.494Z,88.50
2019-05-02T03:35:49.685Z,88.65
2019-05-02T03:38:31.081Z,88.35
2019-05-02T03:40:49.645Z,87.65
2019-05-02T03:43:25.529Z,87.57
2019-05-02T03:45:49.715Z,87.69
2019-05-02T03:48:25.577Z,88.28
2019-05-02T03:50:49.807Z,88.19
2019-05-02T03:53:24.874Z,87.84
2019-05-02T03:55:50.887Z,86.99
2019-05-02T03:58:19.961Z,86.41
2019-05-02T04:01:00.359Z,86.13
2019-05-02T04:03:20.382Z,86.91
2019-05-02T04:05:49.479Z,86.75
2019-05-02T04:08:20.765Z,86.59
2019-05-02T04:11:23.458Z,87.54
2019-05-02T04:13:53.387Z,87.90
2019-05-02T04:16:26.101Z,87.53
2019-05-02T04:18:58.247Z,89.80
2019-05-02T04:21:28.682Z,89.12
2019-05-02T04:24:07.220Z,90.05
2019-05-02T04:26:28.954Z,90.49
2019-05-02T04:28:58.286Z,89.75
2019-05-02T04:31:31.785Z,90.78
2019-05-02T04:33:58.161Z,92.46
2019-05-02T04:36:27.270Z,91.54
2019-05-02T04:38:59.318Z,90.53
2019-05-02T04:41:30.338Z,89.22
2019-05-02T04:44:01.394Z,88.35
2019-05-02T04:46:31.250Z,87.70
2019-05-02T04:48:59.752Z,87.37
2019-05-02T04:51:31.950Z,87.25
2019-05-02T04:54:00.791Z,87.18
2019-05-02T04:56:29.831Z,86.77
2019-05-02T04:59:01.792Z,86.03
2019-05-02T05:01:41.962Z,89.00
2019-05-02T05:04:03.006Z,89.10
2019-05-02T05:06:32.383Z,90.50
2019-05-02T05:09:04.043Z,91.03
2019-05-02T05:11:32.284Z,90.89
2019-05-02T05:14:01.417Z,90.62
2019-05-02T05:16:30.507Z,90.60
2019-05-02T05:19:00.113Z,88.69
2019-05-02T05:21:29.277Z,88.80
2019-05-02T05:24:18.171Z,89.66
2019-05-02T05:26:51.882Z,90.61
2019-05-02T05:29:23.250Z,91.31
2019-05-02T05:31:55.040Z,92.39
2019-05-02T05:34:27.453Z,90.57
2019-05-02T05:36:54.575Z,90.49
2019-05-02T05:39:23.650Z,89.20
2019-05-02T05:41:52.692Z,89.90
2019-05-02T05:44:23.416Z,87.27
2019-05-02T05:46:52.652Z,87.43
2019-05-02T05:49:21.976Z,88.08
2019-05-02T05:51:54.454Z,88.15
2019-05-02T05:54:22.218Z,88.63
2019-05-02T05:56:51.694Z,88.68
2019-05-02T05:59:22.209Z,88.89
2019-05-02T06:01:51.898Z,89.99
2019-05-02T06:04:23.650Z,88.57
2019-05-02T06:06:53.949Z,88.13
2019-05-02T06:09:26.287Z,88.35
2019-05-02T06:11:55.368Z,85.79
2019-05-02T06:14:26.340Z,82.21
2019-05-02T06:16:55.629Z,83.84
2019-05-02T06:19:24.752Z,80.29
2019-05-02T06:21:53.915Z,80.68
2019-05-02T06:24:23.090Z,81.56
2019-05-02T06:26:52.163Z,82.65
2019-05-02T06:29:21.239Z,80.64
2019-05-02T06:31:50.403Z,80.19
2019-05-02T06:34:19.413Z,79.51
2019-05-02T06:36:48.565Z,79.07
2019-05-02T06:39:17.588Z,78.04
2019-05-02T06:41:46.720Z,76.89
2019-05-02T06:44:18.560Z,78.02
2019-05-02T06:46:46.755Z,74.40
2019-05-02T06:49:15.847Z,71.25
2019-05-02T06:51:45.039Z,71.82
2019-05-02T06:54:18.065Z,72.17
2019-05-02T06:56:47.965Z,68.12
2019-05-02T06:59:18.399Z,69.49
2019-05-02T07:01:46.655Z,70.42
2019-05-02T07:04:17.397Z,68.15
2019-05-02T07:06:58.255Z,69.49
2019-05-02T07:09:18.343Z,64.89
2019-05-02T07:11:56.969Z,64.95
2019-05-02T07:14:18.577Z,64.46
2019-05-02T07:17:08.047Z,61.88
2019-05-02T07:19:40.380Z,66.36
2019-05-02T07:22:09.536Z,65.13
2019-05-02T07:24:38.596Z,61.19
2019-05-02T07:27:07.678Z,57.39
2019-05-02T07:29:36.979Z,58.57
2019-05-02T07:32:06.322Z,65.73
2019-05-02T07:34:35.354Z,62.67
2019-05-02T07:37:08.535Z,61.39
2019-05-02T07:39:36.101Z,58.19
2019-05-02T07:42:07.935Z,57.56
2019-05-02T07:44:37.110Z,58.84
2019-05-02T07:47:06.223Z,55.53
2019-05-02T07:49:35.294Z,54.03
2019-05-02T07:52:04.414Z,53.21
2019-05-02T07:54:33.502Z,50.75
2019-05-02T07:57:02.650Z,52.75
2019-05-02T07:59:31.888Z,52.02
2019-05-02T08:02:01.001Z,48.34
2019-05-02T08:04:30.129Z,49.55
2019-05-02T08:06:59.180Z,45.31
2019-05-02T08:09:28.218Z,46.87
2019-05-02T08:11:57.259Z,45.20
2019-05-02T08:14:29.317Z,45.68
2019-05-02T08:17:05.334Z,44.61
2019-05-02T08:19:27.992Z,46.14
2019-05-02T08:21:57.126Z,52.16
2019-05-02T08:24:26.191Z,52.36
2019-05-02T08:27:23.359Z,50.58
2019-05-02T08:29:53.184Z,47.55
2019-05-02T08:32:22.244Z,45.84
2019-05-02T08:34:53.417Z,46.19
2019-05-02T08:37:22.465Z,46.97
2019-05-02T08:39:51.586Z,44.38
2019-05-02T08:42:20.735Z,45.29
2019-05-02T08:44:51.525Z,44.29
2019-05-02T08:47:23.845Z,45.46
2019-05-02T08:49:54.651Z,45.46
2019-05-02T08:52:22.538Z,43.59
2019-05-02T08:54:53.163Z,46.61
2019-05-02T08:57:23.709Z,43.08
2019-05-02T08:59:55.463Z,43.76
2019-05-02T09:02:25.909Z,45.77
2019-05-02T09:04:58.798Z,46.50
2019-05-02T09:07:25.874Z,47.58
2019-05-02T09:09:55.553Z,47.99
2019-05-02T09:12:24.866Z,50.48
2019-05-02T09:14:54.296Z,48.83
2019-05-02T09:17:35.494Z,46.69
2019-05-02T09:20:02.278Z,46.82
2019-05-02T09:22:25.423Z,48.16
2019-05-02T09:24:54.547Z,43.78
2019-05-02T09:27:23.634Z,47.32
2019-05-02T09:29:52.956Z,46.07
2019-05-02T09:32:26.282Z,43.73
2019-05-02T09:34:56.627Z,45.79
2019-05-02T09:37:23.944Z,44.65
2019-05-02T09:39:53.009Z,46.00
2019-05-02T09:42:22.196Z,46.73
2019-05-02T09:44:53.343Z,47.04
2019-05-02T09:47:27.222Z,48.44
2019-05-02T09:50:12.865Z,46.61
2019-05-02T09:52:44.094Z,46.48
2019-05-02T09:55:13.466Z,46.07
2019-05-02T09:57:42.873Z,45.70
2019-05-02T10:00:14.174Z,45.89
2019-05-02T10:02:43.769Z,47.36
2019-05-02T10:05:12.897Z,47.07
2019-05-02T10:07:42.046Z,46.28
2019-05-02T10:10:12.604Z,46.67
2019-05-02T10:12:42.735Z,48.09
2019-05-02T10:15:12.911Z,44.69
2019-05-02T10:17:46.453Z,43.36
2019-05-02T10:20:12.933Z,44.18
2019-05-02T10:22:43.825Z,44.30
2019-05-02T10:25:13.132Z,45.18
2019-05-02T10:27:43.855Z,46.56
2019-05-02T10:30:15.584Z,46.86
2019-05-02T10:32:47.171Z,46.08
2019-05-02T10:35:19.323Z,46.59
2019-05-02T10:37:48.433Z,45.47
2019-05-02T10:40:17.655Z,45.62
2019-05-02T10:42:47.998Z,46.76
2019-05-02T10:45:17.185Z,45.60
2019-05-02T10:47:46.328Z,44.42
2019-05-02T10:50:26.098Z,45.61
2019-05-02T10:52:56.233Z,43.39
2019-05-02T10:55:25.314Z,43.51
2019-05-02T10:57:54.392Z,43.18
2019-05-02T11:00:26.409Z,42.97
2019-05-02T11:03:12.050Z,42.48
2019-05-02T11:05:42.095Z,43.08
2019-05-02T11:08:12.010Z,43.38
2019-05-02T11:10:42.276Z,41.30
2019-05-02T11:13:22.185Z,40.67
2019-05-02T11:16:12.233Z,43.22
2019-05-02T11:19:09.259Z,41.37
2019-05-02T11:21:38.430Z,41.38
2019-05-02T11:24:07.525Z,39.12
2019-05-02T11:26:36.702Z,40.16
2019-05-02T11:29:06.129Z,40.97
2019-05-02T11:31:35.223Z,40.52
2019-05-02T11:34:04.279Z,41.89
2019-05-02T11:36:33.407Z,41.00
2019-05-02T11:39:14.333Z,40.33
2019-05-02T11:41:33.326Z,41.82
2019-05-02T11:44:03.007Z,40.98
2019-05-02T11:46:33.009Z,41.59
2019-05-02T11:49:02.538Z,41.54
2019-05-02T11:51:32.747Z,42.23
2019-05-02T11:54:05.057Z,40.33
2019-05-02T11:56:33.110Z,41.80
2019-05-02T11:59:02.781Z,41.60
2019-05-02T12:01:37.147Z,42.41
2019-05-02T12:04:07.605Z,42.77
2019-05-02T12:06:35.248Z,42.67
2019-05-02T12:09:06.169Z,41.50
2019-05-02T12:11:36.680Z,40.70
2019-05-02T12:14:05.815Z,39.25
2019-05-02T12:16:34.941Z,38.83
2019-05-02T12:19:11.376Z,37.27
2019-05-02T12:21:35.048Z,38.11
2019-05-02T12:24:04.307Z,39.27
2019-05-02T12:26:33.491Z,38.29
2019-05-02T12:29:02.800Z,39.10
2019-05-02T12:31:32.959Z,38.86
2019-05-02T12:34:04.375Z,39.66
2019-05-02T12:36:33.707Z,37.75
2019-05-02T12:39:03.078Z,36.91
2019-05-02T12:41:33.194Z,34.35
2019-05-02T12:44:03.427Z,33.97
2019-05-02T12:46:32.713Z,33.77
2019-05-02T12:49:03.044Z,32.80
2019-05-02T12:51:32.315Z,35.51
2019-05-02T12:54:02.458Z,36.67
2019-05-02T12:56:32.372Z,37.05
2019-05-02T12:59:02.357Z,34.81
2019-05-02T13:01:32.946Z,33.86
2019-05-02T13:04:05.742Z,32.52
2019-05-02T13:06:37.086Z,34.94
2019-05-02T13:09:09.265Z,32.41
2019-05-02T13:12:02.814Z,33.22
2019-05-02T13:14:32.604Z,32.38
2019-05-02T13:17:05.572Z,33.10
2019-05-02T13:19:39.956Z,33.76
2019-05-02T13:22:21.769Z,34.20
2019-05-02T13:25:02.843Z,35.84
2019-05-02T13:27:43.311Z,35.18
2019-05-02T13:30:04.285Z,35.07
2019-05-02T13:32:38.925Z,36.63
2019-05-02T13:35:22.448Z,35.97
2019-05-02T13:37:54.413Z,37.03
2019-05-02T13:40:28.331Z,36.07
2019-05-02T13:42:57.511Z,37.33
2019-05-02T13:45:41.991Z,34.67
2019-05-02T13:48:12.298Z,35.20
2019-05-02T13:50:42.384Z,35.43
2019-05-02T13:53:12.157Z,36.02
2019-05-02T13:55:46.372Z,35.26
2019-05-02T13:58:21.623Z,36.04
2019-05-02T14:00:49.018Z,36.68
2019-05-02T14:03:18.224Z,36.35
2019-05-02T14:05:51.786Z,35.41
2019-05-02T14:08:37.254Z,35.57
2019-05-02T14:11:24.110Z,34.57
2019-05-02T14:13:53.198Z,35.26
2019-05-02T14:16:24.831Z,35.57
2019-05-02T14:18:53.893Z,35.98
2019-05-02T14:21:23.058Z,36.91
2019-05-02T14:23:52.415Z,35.62
2019-05-02T14:26:30.353Z,36.31
2019-05-02T14:28:53.243Z,37.34
2019-05-02T14:31:22.433Z,38.19
2019-05-02T14:34:09.161Z,37.92
2019-05-02T14:36:39.888Z,40.04
2019-05-02T14:39:09.473Z,40.33
2019-05-02T14:41:42.149Z,41.55
2019-05-02T14:44:09.312Z,42.16
2019-05-02T14:46:39.601Z,44.08
2019-05-02T14:49:11.933Z,43.60
2019-05-02T14:51:41.749Z,43.53
2019-05-02T14:54:12.064Z,44.93
2019-05-02T14:57:06.032Z,45.36
2019-05-02T14:59:35.080Z,44.80
2019-05-02T15:02:07.779Z,45.47
2019-05-02T15:04:38.166Z,44.35
2019-05-02T15:07:08.784Z,44.84
2019-05-02T15:09:37.859Z,44.93
2019-05-02T15:12:13.795Z,44.42
2019-05-02T15:14:38.333Z,43.87
2019-05-02T15:17:07.740Z,44.48
2019-05-02T15:20:02.813Z,43.34
2019-05-02T15:22:35.772Z,43.30
2019-05-02T15:25:02.850Z,44.23
2019-05-02T15:27:40.180Z,44.80
2019-05-02T15:30:06.845Z,44.64
2019-05-02T15:32:52.092Z,46.47
2019-05-02T15:35:46.259Z,47.25
2019-05-02T15:38:24.437Z,46.98
2019-05-02T15:40:50.478Z,47.91
2019-05-02T15:43:16.974Z,47.63
2019-05-02T15:45:46.140Z,48.34
2019-05-02T15:48:22.560Z,48.56
2019-05-02T15:50:52.199Z,48.42
2019-05-02T15:53:23.469Z,48.99
2019-05-02T15:55:52.763Z,49.56
2019-05-02T15:58:27.659Z,50.23
2019-05-02T16:01:24.928Z,50.32
2019-05-02T16:03:55.253Z,50.72
2019-05-02T16:06:30.905Z,50.38
2019-05-02T16:08:56.439Z,49.68
2019-05-02T16:11:25.675Z,50.22
2019-05-02T16:13:56.006Z,50.89
2019-05-02T16:16:26.408Z,50.24
2019-05-02T16:18:55.804Z,51.75
2019-05-02T16:21:51.913Z,53.06
2019-05-02T16:24:22.934Z,55.79
2019-05-02T16:26:53.146Z,56.01
2019-05-02T16:29:28.175Z,57.49
2019-05-02T16:32:03.614Z,56.40
2019-05-02T16:34:35.510Z,57.12
2019-05-02T16:37:13.591Z,57.33
2019-05-02T16:39:49.223Z,58.09
2019-05-02T16:42:13.281Z,57.30
2019-05-02T16:44:42.913Z,57.48
2019-05-02T16:47:13.897Z,61.07
2019-05-02T16:49:43.519Z,63.86
2019-05-02T16:52:13.732Z,63.59
2019-05-02T16:54:47.877Z,65.20
2019-05-02T16:57:22.179Z,65.00
2019-05-02T16:59:55.863Z,64.15
2019-05-02T17:02:21.845Z,63.47
2019-05-02T17:04:54.366Z,65.10
2019-05-02T17:07:29.800Z,63.61
2019-05-02T17:10:25.120Z,64.48
2019-05-02T17:12:57.678Z,64.49
2019-05-02T17:15:35.313Z,65.74
2019-05-02T17:18:12.435Z,64.91
2019-05-02T17:20:35.648Z,65.25
2019-05-02T17:23:07.579Z,63.91
2019-05-02T17:25:35.784Z,65.18
2019-05-02T17:28:12.731Z,65.60
2019-05-02T17:30:42.538Z,65.72
2019-05-02T17:33:14.314Z,66.46
2019-05-02T17:35:49.483Z,66.34
2019-05-02T17:38:14.302Z,66.82
2019-05-02T17:40:43.423Z,66.06
2019-05-02T17:43:12.636Z,66.65
2019-05-02T17:45:42.242Z,68.49
2019-05-02T17:48:16.209Z,70.37
2019-05-02T17:50:59.502Z,70.59
2019-05-02T17:53:33.619Z,69.89
2019-05-02T17:56:01.730Z,70.46
2019-05-02T17:58:31.986Z,72.19
2019-05-02T18:01:02.790Z,73.58
2019-05-02T18:03:35.106Z,73.86
2019-05-02T18:06:07.568Z,74.56
2019-05-02T18:08:35.049Z,75.29
2019-05-02T18:11:04.171Z,76.33
2019-05-02T18:13:34.229Z,76.82
2019-05-02T18:16:07.812Z,80.60
2019-05-02T18:18:37.422Z,81.62
2019-05-02T18:21:06.964Z,81.62
2019-05-02T18:23:36.156Z,82.66
2019-05-02T18:26:06.442Z,85.04
2019-05-02T18:28:46.970Z,86.46
2019-05-02T18:31:07.749Z,85.20
2019-05-02T18:33:41.174Z,86.42
2019-05-02T18:36:07.824Z,88.25
2019-05-02T18:38:36.893Z,88.83
2019-05-02T18:41:07.776Z,87.45
2019-05-02T18:43:43.467Z,88.30
2019-05-02T18:46:07.913Z,88.20
2019-05-02T18:48:44.227Z,88.15
2019-05-02T18:51:07.704Z,88.39
2019-05-02T18:53:36.817Z,89.49
2019-05-02T18:56:05.921Z,87.25
2019-05-02T18:58:36.355Z,88.90
2019-05-02T19:01:08.370Z,87.81
2019-05-02T19:03:36.762Z,87.65
2019-05-02T19:06:05.918Z,90.01
2019-05-02T19:08:45.257Z,89.52
2019-05-02T19:11:12.020Z,90.60
2019-05-02T19:13:42.606Z,90.65
2019-05-02T19:16:08.337Z,89.00
2019-05-02T19:18:37.414Z,89.43
2019-05-02T19:21:06.476Z,90.28
2019-05-02T19:23:36.230Z,90.60
2019-05-02T19:26:09.839Z,88.37
2019-05-02T19:28:54.386Z,89.31
2019-05-02T19:31:25.397Z,90.79
2019-05-02T19:33:54.486Z,89.49
2019-05-02T19:36:27.438Z,88.93
2019-05-02T19:38:56.918Z,89.84
2019-05-02T19:41:25.069Z,89.25
2019-05-02T19:43:56.032Z,89.30
2019-05-02T19:46:38.876Z,89.22
2019-05-02T19:49:06.958Z,90.03
2019-05-02T19:51:37.343Z,89.69
2019-05-02T19:54:07.130Z,89.34
2019-05-02T19:56:43.990Z,86.75
2019-05-02T19:59:07.087Z,87.24
2019-05-02T20:01:36.155Z,87.95
2019-05-02T20:04:06.394Z,86.82
2019-05-02T20:06:36.795Z,87.19
2019-05-02T20:09:08.456Z,86.07
2019-05-02T20:11:37.830Z,85.56
2019-05-02T20:14:09.694Z,84.36
2019-05-02T20:16:47.177Z,84.39
2019-05-02T20:19:17.398Z,83.10
2019-05-02T20:22:18.594Z,83.16
2019-05-02T20:24:59.912Z,83.49
2019-05-02T20:27:28.259Z,83.47
2019-05-02T20:29:56.894Z,82.41
2019-05-02T20:32:26.033Z,82.29
2019-05-02T20:34:55.530Z,82.19
2019-05-02T20:37:24.877Z,82.74
2019-05-02T20:39:54.044Z,81.80
2019-05-02T20:42:23.159Z,82.63
2019-05-02T20:44:52.758Z,82.49
2019-05-02T20:47:23.517Z,81.48
2019-05-02T20:49:52.731Z,81.68
2019-05-02T20:52:22.148Z,81.69
2019-05-02T20:54:52.355Z,82.68
2019-05-02T20:57:21.663Z,83.41
2019-05-02T20:59:52.562Z,83.61
2019-05-02T21:02:21.852Z,84.28
2019-05-02T21:04:52.396Z,85.10
2019-05-02T21:07:42.421Z,84.91
2019-05-02T21:10:18.203Z,85.14
2019-05-02T21:12:47.350Z,84.15
2019-05-02T21:15:18.238Z,85.69
2019-05-02T21:17:48.245Z,85.76
2019-05-02T21:20:17.888Z,86.85
2019-05-02T21:22:46.995Z,87.64
2019-05-02T21:25:16.244Z,87.17
2019-05-02T21:27:45.426Z,86.96
2019-05-02T21:30:15.439Z,86.47
2019-05-02T21:32:44.517Z,88.05
2019-05-02T21:35:13.760Z,88.25
2019-05-02T21:37:43.470Z,89.39
2019-05-02T21:40:12.697Z,88.84
2019-05-02T21:42:42.515Z,89.08
2019-05-02T21:45:13.172Z,88.68
2019-05-02T21:47:43.925Z,88.13
2019-05-02T21:50:34.845Z,87.72
2019-05-02T21:53:13.554Z,88.42
2019-05-02T21:55:52.044Z,86.74
2019-05-02T21:58:21.950Z,86.15
2019-05-02T22:00:57.390Z,84.99
2019-05-02T22:03:26.538Z,85.37
2019-05-02T22:05:55.716Z,85.30
2019-05-02T22:08:26.340Z,84.15
2019-05-02T22:10:55.462Z,84.99
2019-05-02T22:13:24.676Z,84.61
2019-05-02T22:15:53.820Z,85.55
2019-05-02T22:18:23.045Z,85.18
2019-05-02T22:20:52.416Z,85.48
2019-05-02T22:23:21.617Z,86.21
2019-05-02T22:25:52.522Z,85.75
2019-05-02T22:28:22.109Z,86.02
2019-05-02T22:30:54.373Z,85.14
2019-05-02T22:33:22.321Z,84.74
2019-05-02T22:35:52.380Z,85.21
2019-05-02T22:38:35.086Z,84.81
2019-05-02T22:41:04.371Z,82.58
2019-05-02T22:43:35.170Z,85.25
2019-05-02T22:46:06.814Z,85.85
2019-05-02T22:48:38.330Z,85.55
2019-05-02T22:51:07.420Z,84.71
2019-05-02T22:53:36.603Z,85.49
2019-05-02T22:56:05.743Z,85.35
2019-05-02T22:58:34.943Z,84.91
2019-05-02T23:01:04.982Z,83.86
2019-05-02T23:03:34.106Z,84.59
2019-05-02T23:06:03.224Z,86.02
2019-05-02T23:08:32.394Z,87.44
2019-05-02T23:11:03.402Z,89.74
2019-05-02T23:13:32.794Z,89.72
2019-05-02T23:16:02.865Z,88.43
2019-05-02T23:18:32.086Z,87.58
2019-05-02T23:21:02.112Z,87.14
2019-05-02T23:23:32.718Z,87.71
2019-05-02T23:26:22.428Z,87.46
2019-05-02T23:28:52.422Z,86.85
2019-05-02T23:31:22.560Z,86.74
2019-05-02T23:34:02.306Z,87.27
2019-05-02T23:36:32.494Z,87.67
2019-05-02T23:39:02.018Z,88.63
2019-05-02T23:41:32.912Z,89.72
2019-05-02T23:44:03.017Z,89.77
2019-05-02T23:46:32.298Z,89.40
2019-05-02T23:49:02.131Z,90.86
2019-05-02T23:51:32.103Z,91.39
2019-05-02T23:54:02.238Z,91.30
2019-05-02T23:56:32.482Z,91.81
2019-05-02T23:59:02.799Z,92.38
